Main page
METAR-TAF:

METAR-TAF

Airports :

McKinley National Park Airport

McKinley Park, Alaska, United States

latitude: 63-44N, longitude: 148-55W, elevation: 1719 ft

Current weather observation

The report was made 49 minutes ago, at 01:56 UTC
Wind 8 mph from the North/Northeast
Temperature 57°F
Humidity 55%
Pressure 30.04 in. Hg
Visibility: 10 miles
Overcast at a height of 8000 ft

METAR: PAIN 190156Z AUTO 02007KT 10SM OVC080 14/05 A3004 RMK AO2 SLP185 T01440050

Time: 18:45 (02:45 UTC)


TAF: missing

Weather observations and forecasts of more than 4000 airports (METAR and TAF reports).

The available stations are represented by yellow and red dots on the map.

Hover mouse over dot to see the name of the station.

Then click to see weather observations and forecasts.

To change the map : click on the green buttons with a black cross to zoom in, on the green button with a dash to zoom out, or on the green arrows for adjacent maps.


METAR-TAF: